sensor_id;sensor_type;location;lat;lon;timestamp;P1;durP1;ratioP1;P2;durP2;ratioP2
53245;SDS011;39569;51.090;-1.786;2023-06-22T00:02:00;42.00;;;23.40;;
53245;SDS011;39569;51.090;-1.786;2023-06-22T00:04:27;34.78;;;21.65;;
53245;SDS011;39569;51.090;-1.786;2023-06-22T00:06:55;23.73;;;21.05;;
53245;SDS011;39569;51.090;-1.786;2023-06-22T00:09:22;25.05;;;22.27;;
53245;SDS011;39569;51.090;-1.786;2023-06-22T00:11:49;23.58;;;20.98;;
53245;SDS011;39569;51.090;-1.786;2023-06-22T00:14:15;23.23;;;20.92;;
53245;SDS011;39569;51.090;-1.786;2023-06-22T00:16:42;35.53;;;25.45;;
53245;SDS011;39569;51.090;-1.786;2023-06-22T00:19:09;29.73;;;24.80;;
53245;SDS011;39569;51.090;-1.786;2023-06-22T00:21:37;28.02;;;25.50;;
53245;SDS011;39569;51.090;-1.786;2023-06-22T00:24:05;27.98;;;25.20;;
53245;SDS011;39569;51.090;-1.786;2023-06-22T00:26:32;26.85;;;24.25;;
53245;SDS011;39569;51.090;-1.786;2023-06-22T00:28:59;39.53;;;23.52;;
53245;SDS011;39569;51.090;-1.786;2023-06-22T00:31:26;28.67;;;24.77;;
53245;SDS011;39569;51.090;-1.786;2023-06-22T00:33:53;27.08;;;24.40;;
53245;SDS011;39569;51.090;-1.786;2023-06-22T00:36:19;29.05;;;26.38;;
53245;SDS011;39569;51.090;-1.786;2023-06-22T00:38:46;27.38;;;24.45;;
53245;SDS011;39569;51.090;-1.786;2023-06-22T00:41:17;25.48;;;23.10;;
53245;SDS011;39569;51.090;-1.786;2023-06-22T00:43:43;28.35;;;22.10;;
53245;SDS011;39569;51.090;-1.786;2023-06-22T00:46:11;28.83;;;22.20;;
53245;SDS011;39569;51.090;-1.786;2023-06-22T00:48:38;39.03;;;24.55;;
53245;SDS011;39569;51.090;-1.786;2023-06-22T00:51:06;22.67;;;20.67;;
53245;SDS011;39569;51.090;-1.786;2023-06-22T00:53:34;26.00;;;22.70;;
53245;SDS011;39569;51.090;-1.786;2023-06-22T00:56:02;27.10;;;24.58;;
53245;SDS011;39569;51.090;-1.786;2023-06-22T00:58:30;30.85;;;27.70;;
53245;SDS011;39569;51.090;-1.786;2023-06-22T01:00:58;29.05;;;26.35;;
53245;SDS011;39569;51.090;-1.786;2023-06-22T01:03:24;31.50;;;28.25;;
53245;SDS011;39569;51.090;-1.786;2023-06-22T01:05:51;27.75;;;25.13;;
53245;SDS011;39569;51.090;-1.786;2023-06-22T01:08:25;26.27;;;23.75;;
53245;SDS011;39569;51.090;-1.786;2023-06-22T01:10:59;27.35;;;24.90;;
53245;SDS011;39569;51.090;-1.786;2023-06-22T01:13:32;30.02;;;27.02;;
53245;SDS011;39569;51.090;-1.786;2023-06-22T01:16:05;30.23;;;27.25;;
53245;SDS011;39569;51.090;-1.786;2023-06-22T01:18:36;28.63;;;25.88;;
53245;SDS011;39569;51.090;-1.786;2023-06-22T01:21:06;32.72;;;26.88;;
53245;SDS011;39569;51.090;-1.786;2023-06-22T01:23:42;29.98;;;26.90;;
53245;SDS011;39569;51.090;-1.786;2023-06-22T01:26:28;27.02;;;24.50;;
53245;SDS011;39569;51.090;-1.786;2023-06-22T01:29:05;28.58;;;25.20;;
53245;SDS011;39569;51.090;-1.786;2023-06-22T01:31:33;31.67;;;24.02;;
53245;SDS011;39569;51.090;-1.786;2023-06-22T01:34:01;28.85;;;25.25;;
53245;SDS011;39569;51.090;-1.786;2023-06-22T01:36:30;31.05;;;27.35;;
53245;SDS011;39569;51.090;-1.786;2023-06-22T01:38:59;32.55;;;26.77;;
53245;SDS011;39569;51.090;-1.786;2023-06-22T01:41:29;27.33;;;25.02;;
53245;SDS011;39569;51.090;-1.786;2023-06-22T01:43:57;45.05;;;26.40;;
53245;SDS011;39569;51.090;-1.786;2023-06-22T01:46:27;27.75;;;24.52;;
53245;SDS011;39569;51.090;-1.786;2023-06-22T01:48:55;27.13;;;24.45;;
53245;SDS011;39569;51.090;-1.786;2023-06-22T01:51:22;24.73;;;22.52;;
53245;SDS011;39569;51.090;-1.786;2023-06-22T01:53:49;27.05;;;24.52;;
53245;SDS011;39569;51.090;-1.786;2023-06-22T01:56:16;26.08;;;23.52;;
53245;SDS011;39569;51.090;-1.786;2023-06-22T01:58:45;24.70;;;22.20;;
53245;SDS011;39569;51.090;-1.786;2023-06-22T02:01:18;23.85;;;21.42;;
53245;SDS011;39569;51.090;-1.786;2023-06-22T02:03:52;26.30;;;23.73;;
53245;SDS011;39569;51.090;-1.786;2023-06-22T02:06:24;23.88;;;21.63;;
53245;SDS011;39569;51.090;-1.786;2023-06-22T02:08:57;24.40;;;20.45;;
53245;SDS011;39569;51.090;-1.786;2023-06-22T02:11:27;22.27;;;20.27;;
53245;SDS011;39569;51.090;-1.786;2023-06-22T02:13:56;20.00;;;18.02;;
53245;SDS011;39569;51.090;-1.786;2023-06-22T02:16:24;19.98;;;18.05;;
53245;SDS011;39569;51.090;-1.786;2023-06-22T02:18:56;17.10;;;15.60;;
53245;SDS011;39569;51.090;-1.786;2023-06-22T02:21:28;19.42;;;17.83;;
53245;SDS011;39569;51.090;-1.786;2023-06-22T02:23:55;20.75;;;18.98;;
53245;SDS011;39569;51.090;-1.786;2023-06-22T02:26:22;27.05;;;24.42;;
53245;SDS011;39569;51.090;-1.786;2023-06-22T02:28:50;26.38;;;23.58;;
53245;SDS011;39569;51.090;-1.786;2023-06-22T02:31:16;30.42;;;26.45;;
53245;SDS011;39569;51.090;-1.786;2023-06-22T02:33:43;26.80;;;23.95;;
53245;SDS011;39569;51.090;-1.786;2023-06-22T02:36:11;41.63;;;28.33;;
53245;SDS011;39569;51.090;-1.786;2023-06-22T02:38:38;32.35;;;28.85;;
53245;SDS011;39569;51.090;-1.786;2023-06-22T02:41:13;33.42;;;29.98;;
53245;SDS011;39569;51.090;-1.786;2023-06-22T02:43:43;35.70;;;31.80;;
53245;SDS011;39569;51.090;-1.786;2023-06-22T02:46:10;36.08;;;32.25;;
53245;SDS011;39569;51.090;-1.786;2023-06-22T02:48:38;37.47;;;32.25;;
53245;SDS011;39569;51.090;-1.786;2023-06-22T02:51:05;35.83;;;31.98;;
53245;SDS011;39569;51.090;-1.786;2023-06-22T02:53:33;43.47;;;35.25;;
53245;SDS011;39569;51.090;-1.786;2023-06-22T02:56:00;34.03;;;30.48;;
53245;SDS011;39569;51.090;-1.786;2023-06-22T02:58:28;32.95;;;29.90;;
53245;SDS011;39569;51.090;-1.786;2023-06-22T03:00:55;30.98;;;28.27;;
53245;SDS011;39569;51.090;-1.786;2023-06-22T03:03:21;31.40;;;27.90;;
53245;SDS011;39569;51.090;-1.786;2023-06-22T03:05:51;27.80;;;25.17;;
53245;SDS011;39569;51.090;-1.786;2023-06-22T03:08:18;28.42;;;25.83;;
53245;SDS011;39569;51.090;-1.786;2023-06-22T03:10:46;28.25;;;25.67;;
53245;SDS011;39569;51.090;-1.786;2023-06-22T03:13:13;27.33;;;24.65;;
53245;SDS011;39569;51.090;-1.786;2023-06-22T03:15:39;26.60;;;23.90;;
53245;SDS011;39569;51.090;-1.786;2023-06-22T03:18:06;25.27;;;23.05;;
53245;SDS011;39569;51.090;-1.786;2023-06-22T03:20:33;24.48;;;22.25;;
53245;SDS011;39569;51.090;-1.786;2023-06-22T03:22:59;24.20;;;21.85;;
53245;SDS011;39569;51.090;-1.786;2023-06-22T03:25:26;19.85;;;18.27;;
53245;SDS011;39569;51.090;-1.786;2023-06-22T03:27:54;19.20;;;17.50;;
53245;SDS011;39569;51.090;-1.786;2023-06-22T03:30:21;18.45;;;16.85;;
53245;SDS011;39569;51.090;-1.786;2023-06-22T03:32:47;21.55;;;19.65;;
53245;SDS011;39569;51.090;-1.786;2023-06-22T03:35:14;24.05;;;22.10;;
53245;SDS011;39569;51.090;-1.786;2023-06-22T03:37:41;26.35;;;24.05;;
53245;SDS011;39569;51.090;-1.786;2023-06-22T03:40:08;25.27;;;22.17;;
53245;SDS011;39569;51.090;-1.786;2023-06-22T03:42:35;28.60;;;23.88;;
53245;SDS011;39569;51.090;-1.786;2023-06-22T03:45:04;18.90;;;17.30;;
53245;SDS011;39569;51.090;-1.786;2023-06-22T03:47:31;17.70;;;16.17;;
53245;SDS011;39569;51.090;-1.786;2023-06-22T03:49:58;38.80;;;20.52;;
53245;SDS011;39569;51.090;-1.786;2023-06-22T03:52:25;34.08;;;23.42;;
53245;SDS011;39569;51.090;-1.786;2023-06-22T03:54:52;32.08;;;28.83;;
53245;SDS011;39569;51.090;-1.786;2023-06-22T03:57:19;31.25;;;28.35;;
53245;SDS011;39569;51.090;-1.786;2023-06-22T03:59:45;32.13;;;26.48;;
53245;SDS011;39569;51.090;-1.786;2023-06-22T04:02:13;25.58;;;23.05;;
53245;SDS011;39569;51.090;-1.786;2023-06-22T04:04:40;23.73;;;21.73;;
53245;SDS011;39569;51.090;-1.786;2023-06-22T04:07:07;22.48;;;20.67;;
53245;SDS011;39569;51.090;-1.786;2023-06-22T04:09:34;21.85;;;20.05;;
53245;SDS011;39569;51.090;-1.786;2023-06-22T04:12:01;22.77;;;20.73;;
53245;SDS011;39569;51.090;-1.786;2023-06-22T04:14:28;21.13;;;19.40;;
53245;SDS011;39569;51.090;-1.786;2023-06-22T04:16:54;47.38;;;27.25;;
53245;SDS011;39569;51.090;-1.786;2023-06-22T04:19:22;43.25;;;28.98;;
53245;SDS011;39569;51.090;-1.786;2023-06-22T04:21:49;39.08;;;29.67;;
53245;SDS011;39569;51.090;-1.786;2023-06-22T04:24:16;35.38;;;31.33;;
53245;SDS011;39569;51.090;-1.786;2023-06-22T04:26:43;36.08;;;32.05;;
53245;SDS011;39569;51.090;-1.786;2023-06-22T04:29:10;41.78;;;32.55;;
53245;SDS011;39569;51.090;-1.786;2023-06-22T04:31:37;38.92;;;30.40;;
53245;SDS011;39569;51.090;-1.786;2023-06-22T04:34:04;37.67;;;30.02;;
53245;SDS011;39569;51.090;-1.786;2023-06-22T04:36:34;33.92;;;30.42;;
53245;SDS011;39569;51.090;-1.786;2023-06-22T04:39:06;39.30;;;31.95;;
53245;SDS011;39569;51.090;-1.786;2023-06-22T04:41:34;45.75;;;33.10;;
53245;SDS011;39569;51.090;-1.786;2023-06-22T04:44:07;50.70;;;33.08;;
53245;SDS011;39569;51.090;-1.786;2023-06-22T04:46:37;56.10;;;34.03;;
53245;SDS011;39569;51.090;-1.786;2023-06-22T04:49:05;42.42;;;33.75;;
53245;SDS011;39569;51.090;-1.786;2023-06-22T04:51:37;45.65;;;33.33;;
53245;SDS011;39569;51.090;-1.786;2023-06-22T04:54:05;38.05;;;31.83;;
53245;SDS011;39569;51.090;-1.786;2023-06-22T04:56:32;39.65;;;30.10;;
53245;SDS011;39569;51.090;-1.786;2023-06-22T04:58:59;36.03;;;31.70;;
53245;SDS011;39569;51.090;-1.786;2023-06-22T05:01:28;45.83;;;33.35;;
53245;SDS011;39569;51.090;-1.786;2023-06-22T05:03:56;55.47;;;34.85;;
53245;SDS011;39569;51.090;-1.786;2023-06-22T05:06:26;55.55;;;36.80;;
53245;SDS011;39569;51.090;-1.786;2023-06-22T05:08:54;48.53;;;36.70;;
53245;SDS011;39569;51.090;-1.786;2023-06-22T05:11:23;71.18;;;37.13;;
53245;SDS011;39569;51.090;-1.786;2023-06-22T05:13:51;52.38;;;35.30;;
53245;SDS011;39569;51.090;-1.786;2023-06-22T05:16:18;48.20;;;35.60;;
53245;SDS011;39569;51.090;-1.786;2023-06-22T05:18:49;69.38;;;37.40;;
53245;SDS011;39569;51.090;-1.786;2023-06-22T05:21:20;51.55;;;37.20;;
53245;SDS011;39569;51.090;-1.786;2023-06-22T05:23:48;37.60;;;33.53;;
53245;SDS011;39569;51.090;-1.786;2023-06-22T05:26:16;81.22;;;33.45;;
53245;SDS011;39569;51.090;-1.786;2023-06-22T05:28:43;50.60;;;34.60;;
53245;SDS011;39569;51.090;-1.786;2023-06-22T05:31:10;43.30;;;34.17;;
53245;SDS011;39569;51.090;-1.786;2023-06-22T05:33:37;38.10;;;31.65;;
53245;SDS011;39569;51.090;-1.786;2023-06-22T05:36:04;55.75;;;33.25;;
53245;SDS011;39569;51.090;-1.786;2023-06-22T05:38:31;35.90;;;30.98;;
53245;SDS011;39569;51.090;-1.786;2023-06-22T05:40:58;70.53;;;23.17;;
53245;SDS011;39569;51.090;-1.786;2023-06-22T05:43:26;35.50;;;26.33;;
53245;SDS011;39569;51.090;-1.786;2023-06-22T05:45:53;53.38;;;25.67;;
53245;SDS011;39569;51.090;-1.786;2023-06-22T05:48:20;34.63;;;25.70;;
53245;SDS011;39569;51.090;-1.786;2023-06-22T05:50:47;31.65;;;23.08;;
53245;SDS011;39569;51.090;-1.786;2023-06-22T05:53:13;27.75;;;24.92;;
53245;SDS011;39569;51.090;-1.786;2023-06-22T05:55:40;38.17;;;22.58;;
53245;SDS011;39569;51.090;-1.786;2023-06-22T05:58:07;24.73;;;21.40;;
53245;SDS011;39569;51.090;-1.786;2023-06-22T06:00:36;29.88;;;18.90;;
53245;SDS011;39569;51.090;-1.786;2023-06-22T06:03:02;21.75;;;19.52;;
53245;SDS011;39569;51.090;-1.786;2023-06-22T06:05:29;36.95;;;18.23;;
53245;SDS011;39569;51.090;-1.786;2023-06-22T06:07:56;24.02;;;17.75;;
53245;SDS011;39569;51.090;-1.786;2023-06-22T06:10:23;21.02;;;18.80;;
53245;SDS011;39569;51.090;-1.786;2023-06-22T06:12:50;21.75;;;19.75;;
53245;SDS011;39569;51.090;-1.786;2023-06-22T06:15:17;25.45;;;20.00;;
53245;SDS011;39569;51.090;-1.786;2023-06-22T06:17:48;22.48;;;20.55;;
53245;SDS011;39569;51.090;-1.786;2023-06-22T06:20:19;21.52;;;19.60;;
53245;SDS011;39569;51.090;-1.786;2023-06-22T06:22:47;25.00;;;22.35;;
53245;SDS011;39569;51.090;-1.786;2023-06-22T06:25:15;22.60;;;20.33;;
53245;SDS011;39569;51.090;-1.786;2023-06-22T06:27:42;24.48;;;21.98;;
53245;SDS011;39569;51.090;-1.786;2023-06-22T06:30:10;24.02;;;21.50;;
53245;SDS011;39569;51.090;-1.786;2023-06-22T06:32:37;26.25;;;23.35;;
53245;SDS011;39569;51.090;-1.786;2023-06-22T06:35:07;27.48;;;22.63;;
53245;SDS011;39569;51.090;-1.786;2023-06-22T06:37:36;32.50;;;25.10;;
53245;SDS011;39569;51.090;-1.786;2023-06-22T06:40:04;27.10;;;24.25;;
53245;SDS011;39569;51.090;-1.786;2023-06-22T06:42:33;33.47;;;28.00;;
53245;SDS011;39569;51.090;-1.786;2023-06-22T06:45:00;38.10;;;27.30;;
53245;SDS011;39569;51.090;-1.786;2023-06-22T06:47:26;38.90;;;31.05;;
53245;SDS011;39569;51.090;-1.786;2023-06-22T06:49:53;48.03;;;32.55;;
53245;SDS011;39569;51.090;-1.786;2023-06-22T06:52:21;39.05;;;34.08;;
53245;SDS011;39569;51.090;-1.786;2023-06-22T06:54:48;41.67;;;34.90;;
53245;SDS011;39569;51.090;-1.786;2023-06-22T06:57:16;44.97;;;36.65;;
53245;SDS011;39569;51.090;-1.786;2023-06-22T06:59:43;47.13;;;39.17;;
53245;SDS011;39569;51.090;-1.786;2023-06-22T07:02:10;44.50;;;37.08;;
53245;SDS011;39569;51.090;-1.786;2023-06-22T07:04:37;55.78;;;39.28;;
53245;SDS011;39569;51.090;-1.786;2023-06-22T07:07:03;44.72;;;37.65;;
53245;SDS011;39569;51.090;-1.786;2023-06-22T07:09:32;58.75;;;41.03;;
53245;SDS011;39569;51.090;-1.786;2023-06-22T07:11:59;44.53;;;38.10;;
53245;SDS011;39569;51.090;-1.786;2023-06-22T07:14:26;44.28;;;38.72;;
53245;SDS011;39569;51.090;-1.786;2023-06-22T07:16:52;55.30;;;40.95;;
53245;SDS011;39569;51.090;-1.786;2023-06-22T07:19:24;50.63;;;38.40;;
53245;SDS011;39569;51.090;-1.786;2023-06-22T07:21:51;42.72;;;38.03;;
53245;SDS011;39569;51.090;-1.786;2023-06-22T07:24:18;50.60;;;38.75;;
53245;SDS011;39569;51.090;-1.786;2023-06-22T07:26:47;41.63;;;37.28;;
53245;SDS011;39569;51.090;-1.786;2023-06-22T07:29:15;38.13;;;34.17;;
53245;SDS011;39569;51.090;-1.786;2023-06-22T07:31:42;39.45;;;35.50;;
53245;SDS011;39569;51.090;-1.786;2023-06-22T07:34:09;38.00;;;33.92;;
53245;SDS011;39569;51.090;-1.786;2023-06-22T07:36:35;39.33;;;35.20;;
53245;SDS011;39569;51.090;-1.786;2023-06-22T07:39:02;36.17;;;32.30;;
53245;SDS011;39569;51.090;-1.786;2023-06-22T07:41:29;38.15;;;34.15;;
53245;SDS011;39569;51.090;-1.786;2023-06-22T07:43:57;38.63;;;34.40;;
53245;SDS011;39569;51.090;-1.786;2023-06-22T07:46:24;33.28;;;29.80;;
53245;SDS011;39569;51.090;-1.786;2023-06-22T07:48:51;33.83;;;30.23;;
53245;SDS011;39569;51.090;-1.786;2023-06-22T07:51:18;34.63;;;31.25;;
53245;SDS011;39569;51.090;-1.786;2023-06-22T07:53:44;34.13;;;29.60;;
53245;SDS011;39569;51.090;-1.786;2023-06-22T07:56:11;31.50;;;28.33;;
53245;SDS011;39569;51.090;-1.786;2023-06-22T07:58:38;36.80;;;31.98;;
53245;SDS011;39569;51.090;-1.786;2023-06-22T08:01:07;35.35;;;29.77;;
53245;SDS011;39569;51.090;-1.786;2023-06-22T08:03:33;30.77;;;27.52;;
53245;SDS011;39569;51.090;-1.786;2023-06-22T08:06:00;31.42;;;28.33;;
53245;SDS011;39569;51.090;-1.786;2023-06-22T08:08:27;29.42;;;26.45;;
53245;SDS011;39569;51.090;-1.786;2023-06-22T08:10:54;31.10;;;28.30;;
53245;SDS011;39569;51.090;-1.786;2023-06-22T08:13:20;30.52;;;27.58;;
53245;SDS011;39569;51.090;-1.786;2023-06-22T08:15:47;35.95;;;30.15;;
53245;SDS011;39569;51.090;-1.786;2023-06-22T08:18:15;30.38;;;27.27;;
53245;SDS011;39569;51.090;-1.786;2023-06-22T08:20:42;29.13;;;26.08;;
53245;SDS011;39569;51.090;-1.786;2023-06-22T08:23:09;26.17;;;23.50;;
53245;SDS011;39569;51.090;-1.786;2023-06-22T08:25:36;30.70;;;25.80;;
53245;SDS011;39569;51.090;-1.786;2023-06-22T08:28:03;32.25;;;27.05;;
53245;SDS011;39569;51.090;-1.786;2023-06-22T08:30:30;33.97;;;29.15;;
53245;SDS011;39569;51.090;-1.786;2023-06-22T08:32:57;30.17;;;27.27;;
53245;SDS011;39569;51.090;-1.786;2023-06-22T08:35:25;32.90;;;29.38;;
53245;SDS011;39569;51.090;-1.786;2023-06-22T08:37:52;30.35;;;27.42;;
53245;SDS011;39569;51.090;-1.786;2023-06-22T08:40:19;31.02;;;27.95;;
53245;SDS011;39569;51.090;-1.786;2023-06-22T08:42:46;31.40;;;27.58;;
53245;SDS011;39569;51.090;-1.786;2023-06-22T08:45:14;28.38;;;25.55;;
53245;SDS011;39569;51.090;-1.786;2023-06-22T08:47:41;28.55;;;25.63;;
53245;SDS011;39569;51.090;-1.786;2023-06-22T08:50:08;30.60;;;26.92;;
53245;SDS011;39569;51.090;-1.786;2023-06-22T08:52:37;27.42;;;24.67;;
53245;SDS011;39569;51.090;-1.786;2023-06-22T08:55:06;26.60;;;23.83;;
53245;SDS011;39569;51.090;-1.786;2023-06-22T08:57:34;23.00;;;21.02;;
53245;SDS011;39569;51.090;-1.786;2023-06-22T09:00:02;26.08;;;23.38;;
53245;SDS011;39569;51.090;-1.786;2023-06-22T09:02:32;24.90;;;22.42;;
53245;SDS011;39569;51.090;-1.786;2023-06-22T09:05:02;21.98;;;19.65;;
53245;SDS011;39569;51.090;-1.786;2023-06-22T09:07:30;24.05;;;21.45;;
53245;SDS011;39569;51.090;-1.786;2023-06-22T09:09:58;21.63;;;19.27;;
53245;SDS011;39569;51.090;-1.786;2023-06-22T09:12:25;23.08;;;20.67;;
53245;SDS011;39569;51.090;-1.786;2023-06-22T09:14:55;22.98;;;20.60;;
53245;SDS011;39569;51.090;-1.786;2023-06-22T09:17:22;29.83;;;19.45;;
53245;SDS011;39569;51.090;-1.786;2023-06-22T09:19:49;20.73;;;18.73;;
53245;SDS011;39569;51.090;-1.786;2023-06-22T09:22:16;17.63;;;15.93;;
53245;SDS011;39569;51.090;-1.786;2023-06-22T09:24:43;17.58;;;15.93;;
53245;SDS011;39569;51.090;-1.786;2023-06-22T09:27:11;22.15;;;17.30;;
53245;SDS011;39569;51.090;-1.786;2023-06-22T09:29:38;19.70;;;16.63;;
53245;SDS011;39569;51.090;-1.786;2023-06-22T09:32:05;16.15;;;14.43;;
53245;SDS011;39569;51.090;-1.786;2023-06-22T09:34:32;15.63;;;14.07;;
53245;SDS011;39569;51.090;-1.786;2023-06-22T09:36:59;16.50;;;13.05;;
53245;SDS011;39569;51.090;-1.786;2023-06-22T09:39:27;16.45;;;13.55;;
53245;SDS011;39569;51.090;-1.786;2023-06-22T09:41:53;15.00;;;13.45;;
53245;SDS011;39569;51.090;-1.786;2023-06-22T09:44:22;13.73;;;12.40;;
53245;SDS011;39569;51.090;-1.786;2023-06-22T09:46:48;17.17;;;14.05;;
53245;SDS011;39569;51.090;-1.786;2023-06-22T09:49:15;12.30;;;11.02;;
53245;SDS011;39569;51.090;-1.786;2023-06-22T09:51:42;13.50;;;11.38;;
53245;SDS011;39569;51.090;-1.786;2023-06-22T09:54:08;8.70;;;7.82;;
53245;SDS011;39569;51.090;-1.786;2023-06-22T09:56:35;16.80;;;9.48;;
53245;SDS011;39569;51.090;-1.786;2023-06-22T09:59:02;10.30;;;9.38;;
53245;SDS011;39569;51.090;-1.786;2023-06-22T10:01:30;11.85;;;6.97;;
53245;SDS011;39569;51.090;-1.786;2023-06-22T10:03:57;6.03;;;5.60;;
53245;SDS011;39569;51.090;-1.786;2023-06-22T10:06:24;8.27;;;6.75;;
53245;SDS011;39569;51.090;-1.786;2023-06-22T10:08:51;13.45;;;7.22;;
53245;SDS011;39569;51.090;-1.786;2023-06-22T10:11:18;16.60;;;6.15;;
53245;SDS011;39569;51.090;-1.786;2023-06-22T10:13:44;5.82;;;5.20;;
53245;SDS011;39569;51.090;-1.786;2023-06-22T10:16:11;7.00;;;6.32;;
53245;SDS011;39569;51.090;-1.786;2023-06-22T10:18:39;6.35;;;5.82;;
53245;SDS011;39569;51.090;-1.786;2023-06-22T10:21:06;7.40;;;6.57;;
53245;SDS011;39569;51.090;-1.786;2023-06-22T10:23:33;6.65;;;6.05;;
53245;SDS011;39569;51.090;-1.786;2023-06-22T10:25:59;7.22;;;6.53;;
53245;SDS011;39569;51.090;-1.786;2023-06-22T10:28:26;6.88;;;6.18;;
53245;SDS011;39569;51.090;-1.786;2023-06-22T10:30:53;6.97;;;5.38;;
53245;SDS011;39569;51.090;-1.786;2023-06-22T10:33:20;6.70;;;5.88;;
53245;SDS011;39569;51.090;-1.786;2023-06-22T10:35:48;5.63;;;5.00;;
53245;SDS011;39569;51.090;-1.786;2023-06-22T10:38:14;8.25;;;6.07;;
53245;SDS011;39569;51.090;-1.786;2023-06-22T10:40:41;7.13;;;6.05;;
53245;SDS011;39569;51.090;-1.786;2023-06-22T10:43:08;8.02;;;6.25;;
53245;SDS011;39569;51.090;-1.786;2023-06-22T10:45:35;8.73;;;5.50;;
53245;SDS011;39569;51.090;-1.786;2023-06-22T10:48:01;5.25;;;4.65;;
53245;SDS011;39569;51.090;-1.786;2023-06-22T10:50:28;8.70;;;5.88;;
53245;SDS011;39569;51.090;-1.786;2023-06-22T10:52:57;8.30;;;5.78;;
53245;SDS011;39569;51.090;-1.786;2023-06-22T10:55:24;5.70;;;5.20;;
53245;SDS011;39569;51.090;-1.786;2023-06-22T10:57:51;5.70;;;5.28;;
53245;SDS011;39569;51.090;-1.786;2023-06-22T11:00:18;6.18;;;4.43;;
53245;SDS011;39569;51.090;-1.786;2023-06-22T11:02:46;6.32;;;4.70;;
53245;SDS011;39569;51.090;-1.786;2023-06-22T11:05:12;7.13;;;5.97;;
53245;SDS011;39569;51.090;-1.786;2023-06-22T11:07:41;5.45;;;4.95;;
53245;SDS011;39569;51.090;-1.786;2023-06-22T11:10:10;7.03;;;4.85;;
53245;SDS011;39569;51.090;-1.786;2023-06-22T11:12:37;9.55;;;5.68;;
53245;SDS011;39569;51.090;-1.786;2023-06-22T11:15:04;6.82;;;5.75;;
53245;SDS011;39569;51.090;-1.786;2023-06-22T11:17:31;7.13;;;4.93;;
53245;SDS011;39569;51.090;-1.786;2023-06-22T11:19:58;7.97;;;5.28;;
53245;SDS011;39569;51.090;-1.786;2023-06-22T11:22:25;7.45;;;4.32;;
53245;SDS011;39569;51.090;-1.786;2023-06-22T11:24:52;7.05;;;4.68;;
53245;SDS011;39569;51.090;-1.786;2023-06-22T11:27:20;5.80;;;5.22;;
53245;SDS011;39569;51.090;-1.786;2023-06-22T11:29:47;4.80;;;4.40;;
53245;SDS011;39569;51.090;-1.786;2023-06-22T11:32:14;5.25;;;4.72;;
53245;SDS011;39569;51.090;-1.786;2023-06-22T11:34:41;6.10;;;4.00;;
53245;SDS011;39569;51.090;-1.786;2023-06-22T11:37:08;6.57;;;4.35;;
53245;SDS011;39569;51.090;-1.786;2023-06-22T11:39:35;5.90;;;4.05;;
53245;SDS011;39569;51.090;-1.786;2023-06-22T11:42:01;8.40;;;4.80;;
53245;SDS011;39569;51.090;-1.786;2023-06-22T11:44:30;8.82;;;4.53;;
53245;SDS011;39569;51.090;-1.786;2023-06-22T11:46:57;5.53;;;4.78;;
53245;SDS011;39569;51.090;-1.786;2023-06-22T11:49:26;5.40;;;4.88;;
53245;SDS011;39569;51.090;-1.786;2023-06-22T11:51:52;4.60;;;3.83;;
53245;SDS011;39569;51.090;-1.786;2023-06-22T11:54:19;7.78;;;4.93;;
53245;SDS011;39569;51.090;-1.786;2023-06-22T11:56:46;5.55;;;4.53;;
53245;SDS011;39569;51.090;-1.786;2023-06-22T11:59:13;6.57;;;5.07;;
53245;SDS011;39569;51.090;-1.786;2023-06-22T12:01:41;6.65;;;5.28;;
53245;SDS011;39569;51.090;-1.786;2023-06-22T12:04:07;6.88;;;4.90;;
53245;SDS011;39569;51.090;-1.786;2023-06-22T12:06:37;4.55;;;4.15;;
53245;SDS011;39569;51.090;-1.786;2023-06-22T12:09:07;5.15;;;3.65;;
53245;SDS011;39569;51.090;-1.786;2023-06-22T12:11:34;5.63;;;4.28;;
53245;SDS011;39569;51.090;-1.786;2023-06-22T12:14:00;6.20;;;4.43;;
53245;SDS011;39569;51.090;-1.786;2023-06-22T12:16:27;4.80;;;4.40;;
53245;SDS011;39569;51.090;-1.786;2023-06-22T12:18:55;8.50;;;5.45;;
53245;SDS011;39569;51.090;-1.786;2023-06-22T12:21:22;5.78;;;4.50;;
53245;SDS011;39569;51.090;-1.786;2023-06-22T12:23:49;5.25;;;4.75;;
53245;SDS011;39569;51.090;-1.786;2023-06-22T12:26:15;4.60;;;4.20;;
53245;SDS011;39569;51.090;-1.786;2023-06-22T12:28:42;4.78;;;4.20;;
53245;SDS011;39569;51.090;-1.786;2023-06-22T12:31:09;4.57;;;3.88;;
53245;SDS011;39569;51.090;-1.786;2023-06-22T12:33:36;5.18;;;4.63;;
53245;SDS011;39569;51.090;-1.786;2023-06-22T12:36:04;5.35;;;4.65;;
53245;SDS011;39569;51.090;-1.786;2023-06-22T12:38:31;5.00;;;4.15;;
53245;SDS011;39569;51.090;-1.786;2023-06-22T12:40:58;7.03;;;4.47;;
53245;SDS011;39569;51.090;-1.786;2023-06-22T12:43:24;4.47;;;4.10;;
53245;SDS011;39569;51.090;-1.786;2023-06-22T12:45:51;10.85;;;4.43;;
53245;SDS011;39569;51.090;-1.786;2023-06-22T12:48:18;5.07;;;4.53;;
53245;SDS011;39569;51.090;-1.786;2023-06-22T12:50:45;9.52;;;4.32;;
53245;SDS011;39569;51.090;-1.786;2023-06-22T12:53:14;4.57;;;4.18;;
53245;SDS011;39569;51.090;-1.786;2023-06-22T12:55:41;4.20;;;3.85;;
53245;SDS011;39569;51.090;-1.786;2023-06-22T12:58:07;4.32;;;4.03;;
53245;SDS011;39569;51.090;-1.786;2023-06-22T13:00:34;8.27;;;4.18;;
53245;SDS011;39569;51.090;-1.786;2023-06-22T13:03:01;7.75;;;4.45;;
53245;SDS011;39569;51.090;-1.786;2023-06-22T13:05:28;5.72;;;4.90;;
53245;SDS011;39569;51.090;-1.786;2023-06-22T13:07:55;7.93;;;4.68;;
53245;SDS011;39569;51.090;-1.786;2023-06-22T13:10:23;5.07;;;4.60;;
53245;SDS011;39569;51.090;-1.786;2023-06-22T13:12:50;8.02;;;3.83;;
53245;SDS011;39569;51.090;-1.786;2023-06-22T13:17:52;5.18;;;4.00;;
53245;SDS011;39569;51.090;-1.786;2023-06-22T13:20:19;6.78;;;4.20;;
53245;SDS011;39569;51.090;-1.786;2023-06-22T13:22:45;4.32;;;3.72;;
53245;SDS011;39569;51.090;-1.786;2023-06-22T13:25:12;3.92;;;3.58;;
53245;SDS011;39569;51.090;-1.786;2023-06-22T13:27:45;6.32;;;4.20;;
53245;SDS011;39569;51.090;-1.786;2023-06-22T13:30:12;4.05;;;3.65;;
53245;SDS011;39569;51.090;-1.786;2023-06-22T13:32:39;22.42;;;4.72;;
53245;SDS011;39569;51.090;-1.786;2023-06-22T13:35:07;5.80;;;4.07;;
53245;SDS011;39569;51.090;-1.786;2023-06-22T13:37:34;6.60;;;4.18;;
53245;SDS011;39569;51.090;-1.786;2023-06-22T13:40:01;6.25;;;4.13;;
53245;SDS011;39569;51.090;-1.786;2023-06-22T13:42:30;4.72;;;4.25;;
53245;SDS011;39569;51.090;-1.786;2023-06-22T13:44:58;3.50;;;3.20;;
53245;SDS011;39569;51.090;-1.786;2023-06-22T13:47:25;6.93;;;3.58;;
53245;SDS011;39569;51.090;-1.786;2023-06-22T13:49:52;3.72;;;3.42;;
53245;SDS011;39569;51.090;-1.786;2023-06-22T13:52:19;5.18;;;4.70;;
53245;SDS011;39569;51.090;-1.786;2023-06-22T13:54:45;9.07;;;4.35;;
53245;SDS011;39569;51.090;-1.786;2023-06-22T13:57:12;5.50;;;4.90;;
53245;SDS011;39569;51.090;-1.786;2023-06-22T13:59:39;4.40;;;3.78;;
53245;SDS011;39569;51.090;-1.786;2023-06-22T14:02:07;12.48;;;4.43;;
53245;SDS011;39569;51.090;-1.786;2023-06-22T14:04:34;5.55;;;4.30;;
53245;SDS011;39569;51.090;-1.786;2023-06-22T14:07:00;5.75;;;4.57;;
53245;SDS011;39569;51.090;-1.786;2023-06-22T14:09:27;11.35;;;4.28;;
53245;SDS011;39569;51.090;-1.786;2023-06-22T14:11:54;6.18;;;4.13;;
53245;SDS011;39569;51.090;-1.786;2023-06-22T14:14:21;5.18;;;3.53;;
53245;SDS011;39569;51.090;-1.786;2023-06-22T14:16:48;4.53;;;4.10;;
53245;SDS011;39569;51.090;-1.786;2023-06-22T14:19:17;5.07;;;4.53;;
53245;SDS011;39569;51.090;-1.786;2023-06-22T14:21:44;15.07;;;4.15;;